sensor_id;sensor_type;location;lat;lon;timestamp;temperature;humidity
4090;DHT22;2059;48.538;12.146;2022-09-09T00:05:16;16.90;99.90
4090;DHT22;2059;48.538;12.146;2022-09-09T00:10:25;16.80;99.90
4090;DHT22;2059;48.538;12.146;2022-09-09T00:15:34;16.70;99.90
4090;DHT22;2059;48.538;12.146;2022-09-09T00:20:44;16.80;99.90
4090;DHT22;2059;48.538;12.146;2022-09-09T00:25:57;16.80;99.90
4090;DHT22;2059;48.538;12.146;2022-09-09T00:31:12;16.70;99.90
4090;DHT22;2059;48.538;12.146;2022-09-09T00:36:18;16.70;99.90
4090;DHT22;2059;48.538;12.146;2022-09-09T00:41:29;16.60;99.90
4090;DHT22;2059;48.538;12.146;2022-09-09T00:46:46;16.60;99.90
4090;DHT22;2059;48.538;12.146;2022-09-09T00:51:59;16.50;99.90
4090;DHT22;2059;48.538;12.146;2022-09-09T00:57:14;16.60;99.90
4090;DHT22;2059;48.538;12.146;2022-09-09T01:02:28;16.50;99.90
4090;DHT22;2059;48.538;12.146;2022-09-09T01:07:31;16.40;99.90
4090;DHT22;2059;48.538;12.146;2022-09-09T01:17:52;16.40;99.90
4090;DHT22;2059;48.538;12.146;2022-09-09T01:23:08;16.40;99.90
4090;DHT22;2059;48.538;12.146;2022-09-09T01:28:16;16.40;99.90
4090;DHT22;2059;48.538;12.146;2022-09-09T01:33:19;16.40;99.90
4090;DHT22;2059;48.538;12.146;2022-09-09T01:38:21;16.30;99.90
4090;DHT22;2059;48.538;12.146;2022-09-09T01:43:26;16.30;99.90
4090;DHT22;2059;48.538;12.146;2022-09-09T01:48:29;16.20;99.90
4090;DHT22;2059;48.538;12.146;2022-09-09T01:53:31;16.00;99.90
4090;DHT22;2059;48.538;12.146;2022-09-09T02:04:07;16.00;99.90
4090;DHT22;2059;48.538;12.146;2022-09-09T02:09:12;16.00;99.90
4090;DHT22;2059;48.538;12.146;2022-09-09T02:14:20;16.00;99.90
4090;DHT22;2059;48.538;12.146;2022-09-09T02:19:27;16.10;99.90
4090;DHT22;2059;48.538;12.146;2022-09-09T02:24:33;16.00;99.90
4090;DHT22;2059;48.538;12.146;2022-09-09T02:29:39;16.00;99.90
4090;DHT22;2059;48.538;12.146;2022-09-09T02:34:44;16.00;99.90
4090;DHT22;2059;48.538;12.146;2022-09-09T02:39:47;16.10;99.90
4090;DHT22;2059;48.538;12.146;2022-09-09T02:44:50;16.10;99.90
4090;DHT22;2059;48.538;12.146;2022-09-09T02:50:05;16.20;99.90
4090;DHT22;2059;48.538;12.146;2022-09-09T02:55:14;16.20;99.90
4090;DHT22;2059;48.538;12.146;2022-09-09T03:00:24;16.10;99.90
4090;DHT22;2059;48.538;12.146;2022-09-09T03:05:26;16.10;99.90
4090;DHT22;2059;48.538;12.146;2022-09-09T03:10:28;16.00;99.90
4090;DHT22;2059;48.538;12.146;2022-09-09T03:15:32;16.10;99.90
4090;DHT22;2059;48.538;12.146;2022-09-09T03:20:34;16.00;99.90
4090;DHT22;2059;48.538;12.146;2022-09-09T03:25:36;16.00;99.90
4090;DHT22;2059;48.538;12.146;2022-09-09T03:30:40;15.90;99.90
4090;DHT22;2059;48.538;12.146;2022-09-09T03:35:45;15.90;99.90
4090;DHT22;2059;48.538;12.146;2022-09-09T03:40:50;15.90;99.90
4090;DHT22;2059;48.538;12.146;2022-09-09T03:45:55;15.90;99.90
4090;DHT22;2059;48.538;12.146;2022-09-09T03:50:57;15.80;99.90
4090;DHT22;2059;48.538;12.146;2022-09-09T03:56:02;15.90;99.90
4090;DHT22;2059;48.538;12.146;2022-09-09T04:01:07;15.90;99.90
4090;DHT22;2059;48.538;12.146;2022-09-09T04:06:14;15.80;99.90
4090;DHT22;2059;48.538;12.146;2022-09-09T04:11:17;15.80;99.90
4090;DHT22;2059;48.538;12.146;2022-09-09T04:16:20;15.90;99.90
4090;DHT22;2059;48.538;12.146;2022-09-09T04:21:22;15.80;99.90
4090;DHT22;2059;48.538;12.146;2022-09-09T04:26:24;15.80;99.90
4090;DHT22;2059;48.538;12.146;2022-09-09T04:31:27;15.80;99.90
4090;DHT22;2059;48.538;12.146;2022-09-09T04:36:29;15.90;99.90
4090;DHT22;2059;48.538;12.146;2022-09-09T04:41:32;15.80;99.90
4090;DHT22;2059;48.538;12.146;2022-09-09T04:46:35;15.60;99.90
4090;DHT22;2059;48.538;12.146;2022-09-09T04:51:37;15.60;99.90
4090;DHT22;2059;48.538;12.146;2022-09-09T04:56:39;15.60;99.90
4090;DHT22;2059;48.538;12.146;2022-09-09T05:01:43;15.40;99.90
4090;DHT22;2059;48.538;12.146;2022-09-09T05:06:45;15.50;99.90
4090;DHT22;2059;48.538;12.146;2022-09-09T05:11:47;15.50;99.90
4090;DHT22;2059;48.538;12.146;2022-09-09T05:16:50;15.60;99.90
4090;DHT22;2059;48.538;12.146;2022-09-09T05:21:52;15.70;99.90
4090;DHT22;2059;48.538;12.146;2022-09-09T05:26:54;15.60;99.90
4090;DHT22;2059;48.538;12.146;2022-09-09T05:32:02;15.60;99.90
4090;DHT22;2059;48.538;12.146;2022-09-09T05:37:03;15.60;99.90
4090;DHT22;2059;48.538;12.146;2022-09-09T05:42:06;15.60;99.90
4090;DHT22;2059;48.538;12.146;2022-09-09T05:47:09;15.60;99.90
4090;DHT22;2059;48.538;12.146;2022-09-09T05:52:11;15.60;99.90
4090;DHT22;2059;48.538;12.146;2022-09-09T05:57:12;15.70;99.90
4090;DHT22;2059;48.538;12.146;2022-09-09T06:02:15;15.70;99.90
4090;DHT22;2059;48.538;12.146;2022-09-09T06:07:17;15.70;99.90
4090;DHT22;2059;48.538;12.146;2022-09-09T06:12:19;15.80;99.90
4090;DHT22;2059;48.538;12.146;2022-09-09T06:17:22;15.90;99.90
4090;DHT22;2059;48.538;12.146;2022-09-09T06:22:24;16.00;99.90
4090;DHT22;2059;48.538;12.146;2022-09-09T06:27:27;15.90;99.90
4090;DHT22;2059;48.538;12.146;2022-09-09T06:32:31;16.00;99.90
4090;DHT22;2059;48.538;12.146;2022-09-09T06:37:37;16.10;99.90
4090;DHT22;2059;48.538;12.146;2022-09-09T06:42:38;16.10;99.90
4090;DHT22;2059;48.538;12.146;2022-09-09T06:47:41;16.00;99.90
4090;DHT22;2059;48.538;12.146;2022-09-09T06:52:46;16.10;99.90
4090;DHT22;2059;48.538;12.146;2022-09-09T06:57:49;16.20;99.90
4090;DHT22;2059;48.538;12.146;2022-09-09T07:02:52;16.20;99.90
4090;DHT22;2059;48.538;12.146;2022-09-09T07:07:54;16.30;99.90
4090;DHT22;2059;48.538;12.146;2022-09-09T07:12:56;16.30;99.90
4090;DHT22;2059;48.538;12.146;2022-09-09T07:18:02;16.20;99.90
4090;DHT22;2059;48.538;12.146;2022-09-09T07:23:03;16.20;99.90
4090;DHT22;2059;48.538;12.146;2022-09-09T07:28:05;16.20;99.90
4090;DHT22;2059;48.538;12.146;2022-09-09T07:33:10;16.40;99.90
4090;DHT22;2059;48.538;12.146;2022-09-09T07:38:12;16.60;99.90
4090;DHT22;2059;48.538;12.146;2022-09-09T07:43:13;16.50;99.90
4090;DHT22;2059;48.538;12.146;2022-09-09T07:48:20;16.50;99.90
4090;DHT22;2059;48.538;12.146;2022-09-09T07:53:22;16.50;99.90
4090;DHT22;2059;48.538;12.146;2022-09-09T07:58:24;16.60;99.90
4090;DHT22;2059;48.538;12.146;2022-09-09T08:03:27;16.70;99.90
4090;DHT22;2059;48.538;12.146;2022-09-09T08:08:29;16.80;99.90
4090;DHT22;2059;48.538;12.146;2022-09-09T08:13:31;17.00;99.90
4090;DHT22;2059;48.538;12.146;2022-09-09T08:18:34;16.90;99.90
4090;DHT22;2059;48.538;12.146;2022-09-09T08:23:36;16.90;99.90
4090;DHT22;2059;48.538;12.146;2022-09-09T08:28:40;17.10;99.90
4090;DHT22;2059;48.538;12.146;2022-09-09T08:33:44;17.00;99.90
4090;DHT22;2059;48.538;12.146;2022-09-09T08:38:48;17.00;99.90
4090;DHT22;2059;48.538;12.146;2022-09-09T08:43:51;17.10;99.90
4090;DHT22;2059;48.538;12.146;2022-09-09T08:49:05;17.20;99.90
4090;DHT22;2059;48.538;12.146;2022-09-09T08:54:09;17.30;99.90
4090;DHT22;2059;48.538;12.146;2022-09-09T08:59:15;17.50;99.90
4090;DHT22;2059;48.538;12.146;2022-09-09T09:04:36;17.60;99.90
4090;DHT22;2059;48.538;12.146;2022-09-09T09:09:45;17.70;99.90
4090;DHT22;2059;48.538;12.146;2022-09-09T09:14:48;17.90;99.90
4090;DHT22;2059;48.538;12.146;2022-09-09T09:19:51;18.10;99.90
4090;DHT22;2059;48.538;12.146;2022-09-09T09:24:55;18.20;99.90
4090;DHT22;2059;48.538;12.146;2022-09-09T09:29:59;18.20;99.90
4090;DHT22;2059;48.538;12.146;2022-09-09T09:35:10;18.30;99.90
4090;DHT22;2059;48.538;12.146;2022-09-09T09:40:16;18.20;99.90
4090;DHT22;2059;48.538;12.146;2022-09-09T09:45:26;18.10;99.90
4090;DHT22;2059;48.538;12.146;2022-09-09T09:50:32;18.20;99.90
4090;DHT22;2059;48.538;12.146;2022-09-09T09:55:35;18.40;99.90
4090;DHT22;2059;48.538;12.146;2022-09-09T10:00:47;18.60;99.90
4090;DHT22;2059;48.538;12.146;2022-09-09T10:05:51;18.50;99.90
4090;DHT22;2059;48.538;12.146;2022-09-09T10:11:02;18.60;99.90
4090;DHT22;2059;48.538;12.146;2022-09-09T10:16:16;18.60;99.90
4090;DHT22;2059;48.538;12.146;2022-09-09T10:21:42;18.60;99.90
4090;DHT22;2059;48.538;12.146;2022-09-09T10:26:51;18.80;99.90
4090;DHT22;2059;48.538;12.146;2022-09-09T10:32:05;18.90;99.90
4090;DHT22;2059;48.538;12.146;2022-09-09T10:37:19;19.00;99.90
4090;DHT22;2059;48.538;12.146;2022-09-09T10:42:29;18.70;99.90
4090;DHT22;2059;48.538;12.146;2022-09-09T10:47:42;18.70;99.90
4090;DHT22;2059;48.538;12.146;2022-09-09T10:52:53;18.50;99.90
4090;DHT22;2059;48.538;12.146;2022-09-09T10:57:58;18.70;99.90
4090;DHT22;2059;48.538;12.146;2022-09-09T11:03:02;19.00;99.90
4090;DHT22;2059;48.538;12.146;2022-09-09T11:08:10;19.10;99.90
4090;DHT22;2059;48.538;12.146;2022-09-09T11:13:18;19.20;99.90
4090;DHT22;2059;48.538;12.146;2022-09-09T11:18:22;19.20;99.90
4090;DHT22;2059;48.538;12.146;2022-09-09T11:23:30;19.10;99.90
4090;DHT22;2059;48.538;12.146;2022-09-09T11:28:44;19.20;99.90
4090;DHT22;2059;48.538;12.146;2022-09-09T11:33:58;20.00;99.90
4090;DHT22;2059;48.538;12.146;2022-09-09T11:39:21;20.40;99.90
4090;DHT22;2059;48.538;12.146;2022-09-09T11:44:29;20.60;99.90
4090;DHT22;2059;48.538;12.146;2022-09-09T11:49:40;20.50;99.90
4090;DHT22;2059;48.538;12.146;2022-09-09T11:54:48;20.40;99.90
4090;DHT22;2059;48.538;12.146;2022-09-09T12:04:54;20.50;99.90
4090;DHT22;2059;48.538;12.146;2022-09-09T12:10:00;20.70;99.90
4090;DHT22;2059;48.538;12.146;2022-09-09T12:15:23;21.00;99.90
4090;DHT22;2059;48.538;12.146;2022-09-09T12:20:34;21.10;99.90
4090;DHT22;2059;48.538;12.146;2022-09-09T12:25:48;21.50;99.90
4090;DHT22;2059;48.538;12.146;2022-09-09T12:30:56;22.10;99.90
4090;DHT22;2059;48.538;12.146;2022-09-09T12:36:03;22.50;99.90
4090;DHT22;2059;48.538;12.146;2022-09-09T12:41:15;23.00;99.90
4090;DHT22;2059;48.538;12.146;2022-09-09T12:46:30;23.20;99.90
4090;DHT22;2059;48.538;12.146;2022-09-09T12:51:35;22.90;99.90
4090;DHT22;2059;48.538;12.146;2022-09-09T12:56:38;22.50;99.90
4090;DHT22;2059;48.538;12.146;2022-09-09T13:01:40;22.70;99.90
4090;DHT22;2059;48.538;12.146;2022-09-09T13:06:43;22.60;99.90
4090;DHT22;2059;48.538;12.146;2022-09-09T13:11:47;22.70;99.90
4090;DHT22;2059;48.538;12.146;2022-09-09T13:16:56;22.60;99.60
4090;DHT22;2059;48.538;12.146;2022-09-09T13:22:00;22.70;99.70
4090;DHT22;2059;48.538;12.146;2022-09-09T13:27:26;22.50;99.90
4090;DHT22;2059;48.538;12.146;2022-09-09T13:32:29;22.20;99.90
4090;DHT22;2059;48.538;12.146;2022-09-09T13:37:35;22.30;99.90
4090;DHT22;2059;48.538;12.146;2022-09-09T13:42:40;22.70;99.90
4090;DHT22;2059;48.538;12.146;2022-09-09T13:47:43;22.70;99.30
4090;DHT22;2059;48.538;12.146;2022-09-09T13:52:47;22.60;99.40
4090;DHT22;2059;48.538;12.146;2022-09-09T13:57:53;22.40;98.70
4090;DHT22;2059;48.538;12.146;2022-09-09T14:02:55;22.20;99.90
4090;DHT22;2059;48.538;12.146;2022-09-09T14:07:59;22.20;99.90
4090;DHT22;2059;48.538;12.146;2022-09-09T14:13:01;21.90;99.90
4090;DHT22;2059;48.538;12.146;2022-09-09T14:18:03;21.80;99.90
4090;DHT22;2059;48.538;12.146;2022-09-09T14:23:10;21.70;99.90
4090;DHT22;2059;48.538;12.146;2022-09-09T14:28:13;21.40;99.90
4090;DHT22;2059;48.538;12.146;2022-09-09T14:33:16;21.60;99.90
4090;DHT22;2059;48.538;12.146;2022-09-09T14:38:19;21.40;99.90
4090;DHT22;2059;48.538;12.146;2022-09-09T14:43:21;21.40;99.90
4090;DHT22;2059;48.538;12.146;2022-09-09T14:48:23;21.10;99.90
4090;DHT22;2059;48.538;12.146;2022-09-09T14:53:26;21.20;99.90
4090;DHT22;2059;48.538;12.146;2022-09-09T14:58:30;21.10;99.90
4090;DHT22;2059;48.538;12.146;2022-09-09T15:03:32;21.10;99.90
4090;DHT22;2059;48.538;12.146;2022-09-09T15:08:36;20.70;99.90
4090;DHT22;2059;48.538;12.146;2022-09-09T15:13:40;20.60;99.90
4090;DHT22;2059;48.538;12.146;2022-09-09T15:18:43;20.70;99.90
4090;DHT22;2059;48.538;12.146;2022-09-09T15:23:48;20.70;99.90
4090;DHT22;2059;48.538;12.146;2022-09-09T15:28:50;20.80;99.90
4090;DHT22;2059;48.538;12.146;2022-09-09T15:33:54;20.80;99.90
4090;DHT22;2059;48.538;12.146;2022-09-09T15:39:04;20.70;99.90
4090;DHT22;2059;48.538;12.146;2022-09-09T15:44:06;20.50;99.90
4090;DHT22;2059;48.538;12.146;2022-09-09T15:49:09;20.40;99.90
4090;DHT22;2059;48.538;12.146;2022-09-09T15:54:14;20.50;99.90
4090;DHT22;2059;48.538;12.146;2022-09-09T15:59:17;20.60;99.90
4090;DHT22;2059;48.538;12.146;2022-09-09T16:04:20;20.40;99.90
4090;DHT22;2059;48.538;12.146;2022-09-09T16:09:25;20.40;99.90
4090;DHT22;2059;48.538;12.146;2022-09-09T16:14:28;20.40;99.90
4090;DHT22;2059;48.538;12.146;2022-09-09T16:19:34;20.40;99.90
4090;DHT22;2059;48.538;12.146;2022-09-09T16:24:37;20.40;99.90
4090;DHT22;2059;48.538;12.146;2022-09-09T16:29:39;20.30;99.90
4090;DHT22;2059;48.538;12.146;2022-09-09T16:34:41;20.20;99.90
4090;DHT22;2059;48.538;12.146;2022-09-09T16:39:44;20.20;99.90
4090;DHT22;2059;48.538;12.146;2022-09-09T16:44:46;20.50;99.90
4090;DHT22;2059;48.538;12.146;2022-09-09T16:49:50;20.60;99.90
4090;DHT22;2059;48.538;12.146;2022-09-09T16:54:53;20.50;99.90
4090;DHT22;2059;48.538;12.146;2022-09-09T16:59:55;20.40;99.90
4090;DHT22;2059;48.538;12.146;2022-09-09T17:04:59;20.10;99.90
4090;DHT22;2059;48.538;12.146;2022-09-09T17:10:03;20.20;99.90
4090;DHT22;2059;48.538;12.146;2022-09-09T17:15:06;20.20;99.90
4090;DHT22;2059;48.538;12.146;2022-09-09T17:20:09;20.20;99.90
4090;DHT22;2059;48.538;12.146;2022-09-09T17:25:12;20.10;99.90
4090;DHT22;2059;48.538;12.146;2022-09-09T17:30:14;20.00;99.90
4090;DHT22;2059;48.538;12.146;2022-09-09T17:35:17;19.90;99.90
4090;DHT22;2059;48.538;12.146;2022-09-09T17:40:20;19.90;99.90
4090;DHT22;2059;48.538;12.146;2022-09-09T17:45:22;19.80;99.90
4090;DHT22;2059;48.538;12.146;2022-09-09T17:50:25;19.80;99.90
4090;DHT22;2059;48.538;12.146;2022-09-09T17:55:28;19.70;99.90
4090;DHT22;2059;48.538;12.146;2022-09-09T18:00:30;19.60;99.90
4090;DHT22;2059;48.538;12.146;2022-09-09T18:05:32;19.60;99.90
4090;DHT22;2059;48.538;12.146;2022-09-09T18:10:35;19.70;99.90
4090;DHT22;2059;48.538;12.146;2022-09-09T18:15:37;19.50;99.90
4090;DHT22;2059;48.538;12.146;2022-09-09T18:20:39;19.40;99.90
4090;DHT22;2059;48.538;12.146;2022-09-09T18:25:42;19.60;99.90
4090;DHT22;2059;48.538;12.146;2022-09-09T18:30:45;19.30;99.90
4090;DHT22;2059;48.538;12.146;2022-09-09T18:35:48;19.30;99.90
4090;DHT22;2059;48.538;12.146;2022-09-09T18:40:51;19.20;99.90
4090;DHT22;2059;48.538;12.146;2022-09-09T18:45:53;19.20;99.90
4090;DHT22;2059;48.538;12.146;2022-09-09T18:50:55;19.20;99.90
4090;DHT22;2059;48.538;12.146;2022-09-09T18:55:59;19.10;99.90
4090;DHT22;2059;48.538;12.146;2022-09-09T19:01:02;19.10;99.90
4090;DHT22;2059;48.538;12.146;2022-09-09T19:06:07;19.10;99.90
4090;DHT22;2059;48.538;12.146;2022-09-09T19:11:12;19.00;99.90
4090;DHT22;2059;48.538;12.146;2022-09-09T19:16:15;19.00;99.90
4090;DHT22;2059;48.538;12.146;2022-09-09T19:21:19;19.10;99.90
4090;DHT22;2059;48.538;12.146;2022-09-09T19:26:24;19.20;99.90
4090;DHT22;2059;48.538;12.146;2022-09-09T19:31:26;19.00;99.90
4090;DHT22;2059;48.538;12.146;2022-09-09T19:36:29;18.90;99.90
4090;DHT22;2059;48.538;12.146;2022-09-09T19:41:33;18.80;99.90
4090;DHT22;2059;48.538;12.146;2022-09-09T19:46:36;18.70;99.90
4090;DHT22;2059;48.538;12.146;2022-09-09T19:51:38;18.70;99.90
4090;DHT22;2059;48.538;12.146;2022-09-09T19:56:42;18.70;99.90
4090;DHT22;2059;48.538;12.146;2022-09-09T20:01:44;18.70;99.90
4090;DHT22;2059;48.538;12.146;2022-09-09T20:06:46;18.70;99.90
4090;DHT22;2059;48.538;12.146;2022-09-09T20:11:49;18.60;99.90
4090;DHT22;2059;48.538;12.146;2022-09-09T20:16:52;18.50;99.90
4090;DHT22;2059;48.538;12.146;2022-09-09T20:21:54;18.40;99.90
4090;DHT22;2059;48.538;12.146;2022-09-09T20:26:59;18.40;99.90
4090;DHT22;2059;48.538;12.146;2022-09-09T20:32:02;18.20;99.90
4090;DHT22;2059;48.538;12.146;2022-09-09T20:37:05;18.00;99.90
4090;DHT22;2059;48.538;12.146;2022-09-09T20:42:08;17.90;99.90
4090;DHT22;2059;48.538;12.146;2022-09-09T20:47:10;18.00;99.90
4090;DHT22;2059;48.538;12.146;2022-09-09T20:52:12;17.90;99.90
4090;DHT22;2059;48.538;12.146;2022-09-09T20:57:16;17.90;99.90
4090;DHT22;2059;48.538;12.146;2022-09-09T21:02:21;17.80;99.90
4090;DHT22;2059;48.538;12.146;2022-09-09T21:07:23;17.70;99.90
4090;DHT22;2059;48.538;12.146;2022-09-09T21:12:26;17.70;99.90
4090;DHT22;2059;48.538;12.146;2022-09-09T21:17:28;17.50;99.90
4090;DHT22;2059;48.538;12.146;2022-09-09T21:22:30;17.50;99.90
4090;DHT22;2059;48.538;12.146;2022-09-09T21:27:33;17.30;99.90
4090;DHT22;2059;48.538;12.146;2022-09-09T21:32:35;17.20;99.90
4090;DHT22;2059;48.538;12.146;2022-09-09T21:37:37;17.10;99.90
4090;DHT22;2059;48.538;12.146;2022-09-09T21:42:40;17.20;99.90
4090;DHT22;2059;48.538;12.146;2022-09-09T21:47:43;17.10;99.90
4090;DHT22;2059;48.538;12.146;2022-09-09T21:52:46;17.20;99.90
4090;DHT22;2059;48.538;12.146;2022-09-09T21:57:49;17.00;99.90
4090;DHT22;2059;48.538;12.146;2022-09-09T22:02:51;16.90;99.90
4090;DHT22;2059;48.538;12.146;2022-09-09T22:07:53;16.90;99.90
4090;DHT22;2059;48.538;12.146;2022-09-09T22:12:56;16.90;99.90
4090;DHT22;2059;48.538;12.146;2022-09-09T22:17:58;16.80;99.90
4090;DHT22;2059;48.538;12.146;2022-09-09T22:23:02;16.70;99.90
4090;DHT22;2059;48.538;12.146;2022-09-09T22:28:07;16.70;99.90
4090;DHT22;2059;48.538;12.146;2022-09-09T22:33:09;16.60;99.90
4090;DHT22;2059;48.538;12.146;2022-09-09T22:38:12;16.50;99.90
4090;DHT22;2059;48.538;12.146;2022-09-09T22:43:17;16.60;99.90
4090;DHT22;2059;48.538;12.146;2022-09-09T22:48:19;16.50;99.90
4090;DHT22;2059;48.538;12.146;2022-09-09T22:53:21;16.40;99.90
4090;DHT22;2059;48.538;12.146;2022-09-09T22:58:24;16.30;99.90
4090;DHT22;2059;48.538;12.146;2022-09-09T23:03:26;16.40;99.90
4090;DHT22;2059;48.538;12.146;2022-09-09T23:08:31;16.40;99.90
4090;DHT22;2059;48.538;12.146;2022-09-09T23:13:34;16.40;99.90
4090;DHT22;2059;48.538;12.146;2022-09-09T23:18:36;16.40;99.90
4090;DHT22;2059;48.538;12.146;2022-09-09T23:23:40;16.50;99.90
4090;DHT22;2059;48.538;12.146;2022-09-09T23:28:44;16.40;99.90
4090;DHT22;2059;48.538;12.146;2022-09-09T23:33:46;16.40;99.90
4090;DHT22;2059;48.538;12.146;2022-09-09T23:38:48;16.50;99.90
4090;DHT22;2059;48.538;12.146;2022-09-09T23:43:53;16.50;99.90
4090;DHT22;2059;48.538;12.146;2022-09-09T23:48:55;16.40;99.90
4090;DHT22;2059;48.538;12.146;2022-09-09T23:53:59;16.20;99.90
4090;DHT22;2059;48.538;12.146;2022-09-09T23:59:04;16.30;99.90
